Lake of the Woods, Illinois
Current Conditions -  °F | °C
As of 3:54 AM on Sunday 23 Nov 2014 (Local Time) from KPIA Reporting Station
Clear Clear  
Wind Chill: 51°   Ceiling: Unl
Heat Index: 51°   Visibility: 9mi
Dew Point: 45°   Wind: 9mph
Humidity: 80%   Direction: 170°S
Pressure: 29.75"   Gusts: NA
Location:  40.8455°N, 89.6704°W
Report Text: KPIA 230954Z 17008KT 9SM CLR 11/07 A2975 RMK AO2 SLP075 T01060072
Loading
Personal Weather Stations






























Interactive Weather Map New forecast layout! Learn more

10-Day Weather Forecast

Advertisements
Track Severe Weather on mobile